^^
Datos históricos de la estación: Murcia-Puente Tocinos
 
Diario Informe para Septiembre 26, 2020 Unidades:  Métrico    Ingés   Ambas
Diario Semanal Mensual Anual
  Actual: Máxima: Mínima: Promedio:
Temperatura: 24.7 °C 27.2 °C 17.9 °C 21.8 °C
Punto de rocio: 6 °C 6.3 °C 2.9 °C 3.8 °C
Humedad: 30% 39% 24% 31%
Velocidad viento: 9.5km/h 23.3km/h 4.7km/h 13.3km/h
Racha viento: 16.7km/h 42.6km/h - -
VientoSur - - Oeste
Presión: 1012.0 hPa 1018.8 hPa 1011.6 hPa -
Precipitación: 0.0 mm      
 
 
Tabla de datos para Septiembre 26, 2020
Hora Temperatura Punto de rocio Presión Viento Velocidad viento Racha viento Humedad Intensidad lluvia(por hora) Nubes
00:04 22.5 °C 3.1 °C 1018.7 hPa Oeste 7.9 km/h 19.3 km/h 28% 0.0 mm
00:09 22.4 °C 3 °C 1018.7 hPa Oeste 10 km/h 18.5 km/h 28% 0.0 mm
00:14 22.4 °C 3 °C 1018.6 hPa Oeste 10.3 km/h 25.9 km/h 28% 0.0 mm
00:19 22.4 °C 3 °C 1018.6 hPa Oeste 12.2 km/h 25.1 km/h 28% 0.0 mm
00:24 22.3 °C 2.9 °C 1018.6 hPa Oeste 12.6 km/h 25.9 km/h 28% 0.0 mm
00:29 22.3 °C 3.2 °C 1018.6 hPa Oeste 14.8 km/h 24.1 km/h 28.6% 0.0 mm
00:34 22.2 °C 3.3 °C 1018.6 hPa Oeste 14.7 km/h 22.5 km/h 29% 0.0 mm
00:39 22.1 °C 3.2 °C 1018.6 hPa Oeste 13.7 km/h 22.5 km/h 29% 0.0 mm
00:44 21.9 °C 3.1 °C 1018.5 hPa Oeste 13.4 km/h 22.5 km/h 29% 0.0 mm
00:49 21.8 °C 3.4 °C 1018.5 hPa OSO 12.2 km/h 18 km/h 29.8% 0.0 mm
00:54 21.7 °C 3.4 °C 1018.6 hPa OSO 11.8 km/h 22 km/h 30% 0.0 mm
00:59 21.7 °C 3.3 °C 1018.6 hPa OSO 9.5 km/h 22.5 km/h 30% 0.0 mm
01:04 21.6 °C 3.3 °C 1018.6 hPa Oeste 9.1 km/h 12.9 km/h 30.1% 0.0 mm
01:09 21.4 °C 3.6 °C 1018.6 hPa OSO 6.5 km/h 9.7 km/h 30.9% 0.0 mm
01:14 21.4 °C 3.5 °C 1018.6 hPa OSO 6.2 km/h 9.5 km/h 31% 0.0 mm
01:19 21.3 °C 3.5 °C 1018.6 hPa SO 4.7 km/h 11.1 km/h 31% 0.0 mm
01:24 21.2 °C 3.4 °C 1018.7 hPa OSO 4.7 km/h 11.3 km/h 31% 0.0 mm
01:29 21.2 °C 3.4 °C 1018.7 hPa OSO 4.7 km/h 11.1 km/h 31% 0.0 mm
01:34 21.1 °C 3.3 °C 1018.7 hPa Oeste 5 km/h 11.3 km/h 31% 0.0 mm
01:39 21 °C 3.5 °C 1018.8 hPa Oeste 6.9 km/h 11.3 km/h 31.6% 0.0 mm
01:44 20.9 °C 3.3 °C 1018.8 hPa Oeste 7 km/h 14.8 km/h 31.5% 0.0 mm
01:49 20.9 °C 3.5 °C 1018.8 hPa Oeste 7.6 km/h 14.8 km/h 31.9% 0.0 mm
01:54 20.9 °C 3.5 °C 1018.8 hPa Oeste 7.6 km/h 13 km/h 32% 0.0 mm
01:59 20.8 °C 3.4 °C 1018.8 hPa Oeste 7.6 km/h 18.5 km/h 31.8% 0.0 mm
02:04 20.8 °C 3.3 °C 1018.8 hPa Oeste 8 km/h 19.3 km/h 31.5% 0.0 mm
02:09 20.8 °C 3.1 °C 1018.8 hPa Oeste 10.3 km/h 16.7 km/h 31.1% 0.0 mm
02:14 20.8 °C 3.1 °C 1018.6 hPa Oeste 10.2 km/h 16.7 km/h 31% 0.0 mm
02:19 20.9 °C 3.1 °C 1018.6 hPa Oeste 9.5 km/h 18.5 km/h 31% 0.0 mm
02:24 20.9 °C 3.1 °C 1018.6 hPa Oeste 9.6 km/h 19.8 km/h 31% 0.0 mm
02:29 20.9 °C 3.1 °C 1018.6 hPa Oeste 10.3 km/h 20.9 km/h 31% 0.0 mm
02:34 20.9 °C 3.1 °C 1018.6 hPa Oeste 10.6 km/h 22.2 km/h 31% 0.0 mm
02:39 20.9 °C 3.1 °C 1018.6 hPa Oeste 11.9 km/h 22.5 km/h 31% 0.0 mm
02:44 20.8 °C 3.1 °C 1018.4 hPa Oeste 11.9 km/h 22.2 km/h 31% 0.0 mm
02:49 20.8 °C 3.1 °C 1018.4 hPa Oeste 11.9 km/h 22.5 km/h 31% 0.0 mm
02:54 20.8 °C 3.1 °C 1018.4 hPa Oeste 11.9 km/h 20.4 km/h 31% 0.0 mm
02:59 20.7 °C 3 °C 1018.4 hPa Oeste 11.9 km/h 24.1 km/h 31% 0.0 mm
03:04 20.8 °C 3.1 °C 1018.4 hPa Oeste 12.1 km/h 24.1 km/h 31% 0.0 mm
03:09 20.8 °C 3.1 °C 1018.4 hPa Oeste 13.7 km/h 24.1 km/h 31% 0.0 mm
03:14 20.8 °C 3.1 °C 1018.4 hPa Oeste 13.6 km/h 24.1 km/h 31% 0.0 mm
03:19 20.7 °C 3 °C 1018.4 hPa Oeste 13 km/h 20.9 km/h 31% 0.0 mm
03:24 20.7 °C 2.9 °C 1018.4 hPa Oeste 13.1 km/h 22.5 km/h 31% 0.0 mm
03:29 20.6 °C 2.9 °C 1018.2 hPa Oeste 13.7 km/h 24.1 km/h 31% 0.0 mm
03:34 20.6 °C 2.9 °C 1018.2 hPa Oeste 13.7 km/h 24.1 km/h 31% 0.0 mm
03:39 20.4 °C 2.9 °C 1018.2 hPa Oeste 14 km/h 20.9 km/h 31.3% 0.0 mm
03:44 20.3 °C 3.1 °C 1018.0 hPa Oeste 14 km/h 22.2 km/h 32% 0.0 mm
03:49 20.2 °C 3 °C 1018.0 hPa Oeste 14 km/h 22.2 km/h 32% 0.0 mm
03:54 20.1 °C 2.9 °C 1018.0 hPa Oeste 14 km/h 23.3 km/h 32% 0.0 mm
03:59 20.1 °C 2.9 °C 1018.0 hPa Oeste 14 km/h 22.5 km/h 32% 0.0 mm
04:04 20 °C 3 °C 1018.0 hPa Oeste 13.6 km/h 20.9 km/h 32.4% 0.0 mm
04:09 19.9 °C 3.1 °C 1018.0 hPa OSO 11.1 km/h 16.1 km/h 33% 0.0 mm
04:14 19.8 °C 3.1 °C 1018.0 hPa Oeste 10.7 km/h 14 km/h 33% 0.0 mm
04:19 19.8 °C 3.1 °C 1018.0 hPa Oeste 8.4 km/h 14.8 km/h 33% 0.0 mm
04:24 19.7 °C 3 °C 1018.0 hPa Oeste 8.4 km/h 14.5 km/h 33% 0.0 mm
04:29 19.6 °C 3 °C 1017.9 hPa Oeste 8.4 km/h 13 km/h 33.2% 0.0 mm
04:34 19.5 °C 3.2 °C 1017.9 hPa Oeste 8.2 km/h 13.7 km/h 34% 0.0 mm
04:39 19.3 °C 3.1 °C 1017.9 hPa Oeste 7.6 km/h 14.5 km/h 34% 0.0 mm
04:44 19.3 °C 3.1 °C 1017.7 hPa Oeste 7.6 km/h 12.2 km/h 34% 0.0 mm
04:49 19.2 °C 3.2 °C 1017.7 hPa Oeste 7.6 km/h 12.9 km/h 34.6% 0.0 mm
04:54 19.2 °C 3.3 °C 1017.7 hPa ONO 7.4 km/h 11.9 km/h 35% 0.0 mm
04:59 19.1 °C 3.2 °C 1017.7 hPa ONO 6.4 km/h 11.1 km/h 35% 0.0 mm
05:04 18.9 °C 3.1 °C 1017.7 hPa ONO 6.6 km/h 13 km/h 35% 0.0 mm
05:09 18.8 °C 3 °C 1017.7 hPa ONO 7.6 km/h 15.6 km/h 35% 0.0 mm
05:14 18.7 °C 3.1 °C 1017.7 hPa Oeste 8 km/h 16.1 km/h 35.6% 0.0 mm
05:19 18.6 °C 3.2 °C 1017.7 hPa Oeste 10 km/h 15.6 km/h 36% 0.0 mm
05:24 18.5 °C 3.1 °C 1017.7 hPa Oeste 9.8 km/h 16.1 km/h 36% 0.0 mm
05:29 18.4 °C 3 °C 1017.7 hPa Oeste 8.7 km/h 14.8 km/h 36% 0.0 mm
05:34 18.3 °C 3.1 °C 1017.7 hPa Oeste 8.8 km/h 14.8 km/h 36.5% 0.0 mm
05:39 18.2 °C 3.3 °C 1017.8 hPa Oeste 9.5 km/h 14.8 km/h 37% 0.0 mm
05:44 18.2 °C 3.3 °C 1017.8 hPa Oeste 9.6 km/h 18.5 km/h 37% 0.0 mm
05:49 18.3 °C 3.3 °C 1017.8 hPa Oeste 10.3 km/h 20.1 km/h 37% 0.0 mm
05:54 18.3 °C 3.2 °C 1017.8 hPa Oeste 10.4 km/h 22.2 km/h 36.7% 0.0 mm
05:59 18.4 °C 3.1 °C 1017.7 hPa Oeste 11.1 km/h 22.5 km/h 36% 0.0 mm
06:04 18.5 °C 3.1 °C 1017.7 hPa Oeste 11.5 km/h 22.5 km/h 36% 0.0 mm
06:09 18.5 °C 3.1 °C 1017.7 hPa Oeste 13.7 km/h 24.1 km/h 36% 0.0 mm
06:14 18.5 °C 3.1 °C 1017.7 hPa Oeste 13.6 km/h 24.1 km/h 36% 0.0 mm
06:19 18.4 °C 3.1 °C 1017.7 hPa Oeste 13 km/h 24.1 km/h 36% 0.0 mm
06:24 18.3 °C 3 °C 1017.7 hPa Oeste 13.2 km/h 24.5 km/h 36% 0.0 mm
06:29 18.3 °C 3.3 °C 1017.7 hPa OSO 14 km/h 24.1 km/h 36.9% 0.0 mm
06:34 18.2 °C 3.3 °C 1017.7 hPa Oeste 13.9 km/h 24.1 km/h 37% 0.0 mm
06:39 18.1 °C 3.2 °C 1017.8 hPa Oeste 13 km/h 20.9 km/h 37% 0.0 mm
06:44 18 °C 3.2 °C 1017.8 hPa Oeste 12.5 km/h 15.6 km/h 37.2% 0.0 mm
06:49 18 °C 3.5 °C 1017.8 hPa Oeste 10 km/h 20.9 km/h 38% 0.0 mm
06:54 18.1 °C 3.4 °C 1017.9 hPa Oeste 10.1 km/h 20.9 km/h 37.7% 0.0 mm
06:59 18.1 °C 3.4 °C 1017.9 hPa Oeste 11.1 km/h 24.1 km/h 37.5% 0.0 mm
07:04 18.1 °C 3.2 °C 1017.9 hPa Oeste 11.5 km/h 27.8 km/h 37.1% 0.0 mm
07:09 18.2 °C 3.3 °C 1017.9 hPa Oeste 13.7 km/h 25.1 km/h 37% 0.0 mm
07:14 18.2 °C 3.3 °C 1017.8 hPa Oeste 13.5 km/h 25.9 km/h 37% 0.0 mm
07:19 18.2 °C 3.3 °C 1017.8 hPa Oeste 12.2 km/h 26.2 km/h 37% 0.0 mm
07:24 18.2 °C 3.5 °C 1017.8 hPa Oeste 12.2 km/h 25.7 km/h 37.8% 0.0 mm
07:29 18.1 °C 3.6 °C 1017.8 hPa Oeste 12.2 km/h 19.8 km/h 38% 0.0 mm
07:34 18 °C 3.5 °C 1017.8 hPa Oeste 12.2 km/h 24.1 km/h 38% 0.0 mm
07:39 17.9 °C 3.4 °C 1017.8 hPa Oeste 11.9 km/h 24.1 km/h 38% 0.0 mm
07:44 17.9 °C 3.4 °C 1017.6 hPa Oeste 12 km/h 24.1 km/h 38% 0.0 mm
07:49 17.9 °C 3.4 °C 1017.6 hPa Oeste 12.2 km/h 29.6 km/h 38% 0.0 mm
07:54 17.9 °C 3.4 °C 1017.8 hPa Oeste 12.8 km/h 29 km/h 38% 0.0 mm
07:59 17.9 °C 3.4 °C 1017.8 hPa Oeste 16.1 km/h 27.4 km/h 38% 0.0 mm
08:04 17.9 °C 3.4 °C 1017.8 hPa Oeste 15.6 km/h 20.9 km/h 38% 0.0 mm
08:09 17.9 °C 3.4 °C 1017.9 hPa ONO 12.2 km/h 28.6 km/h 38.2% 0.0 mm
08:14 17.9 °C 3.4 °C 1017.9 hPa Oeste 12.6 km/h 29.6 km/h 38.1% 0.0 mm
08:19 17.9 °C 3.7 °C 1017.9 hPa Oeste 14.8 km/h 29 km/h 39% 0.0 mm
08:24 17.9 °C 3.7 °C 1018.2 hPa Oeste 14.7 km/h 25.1 km/h 39% 0.0 mm
08:29 17.9 °C 3.7 °C 1018.2 hPa Oeste 14 km/h 27.8 km/h 39% 0.0 mm
08:34 17.9 °C 3.7 °C 1018.2 hPa Oeste 14.3 km/h 28.2 km/h 39% 0.0 mm
08:39 17.9 °C 3.7 °C 1018.4 hPa Oeste 16.1 km/h 28.2 km/h 39% 0.0 mm
08:44 17.9 °C 3.7 °C 1018.4 hPa Oeste 16.4 km/h 29.6 km/h 39% 0.0 mm
08:49 17.9 °C 3.7 °C 1018.4 hPa Oeste 18 km/h 33.3 km/h 39% 0.0 mm
08:54 17.9 °C 3.7 °C 1018.4 hPa Oeste 18 km/h 33.8 km/h 39% 0.0 mm
08:59 17.9 °C 3.8 °C 1018.1 hPa Oeste 18 km/h 28.2 km/h 39% 0.0 mm
09:04 18 °C 3.9 °C 1018.1 hPa Oeste 17.9 km/h 28.2 km/h 39% 0.0 mm
09:09 18.1 °C 3.9 °C 1018.1 hPa Oeste 17.2 km/h 27.4 km/h 39% 0.0 mm
09:14 18.2 °C 3.9 °C 1018.1 hPa Oeste 16.8 km/h 24.1 km/h 39% 0.0 mm
09:19 18.2 °C 4 °C 1018.1 hPa Oeste 14.8 km/h 24.5 km/h 39% 0.0 mm
09:24 18.2 °C 4 °C 1018.2 hPa Oeste 14.7 km/h 24.1 km/h 39% 0.0 mm
09:29 18.3 °C 4.1 °C 1018.2 hPa OSO 14 km/h 20.9 km/h 39% 0.0 mm
09:34 18.4 °C 3.9 °C 1018.2 hPa OSO 13.6 km/h 22.5 km/h 38.1% 0.0 mm
09:39 18.5 °C 4 °C 1018.3 hPa OSO 11.1 km/h 22.5 km/h 38.3% 0.0 mm
09:44 18.6 °C 4 °C 1018.3 hPa OSO 11.2 km/h 25.6 km/h 38% 0.0 mm
09:49 18.7 °C 4 °C 1018.3 hPa OSO 11.9 km/h 28.2 km/h 38% 0.0 mm
09:54 18.7 °C 4 °C 1018.3 hPa OSO 12.2 km/h 27.4 km/h 38% 0.0 mm
09:59 18.8 °C 3.9 °C 1018.3 hPa OSO 14 km/h 22.5 km/h 37.4% 0.0 mm
10:04 18.9 °C 3.9 °C 1018.3 hPa OSO 14 km/h 26.2 km/h 37% 0.0 mm
10:09 18.9 °C 3.9 °C 1018.3 hPa OSO 14 km/h 30.6 km/h 37% 0.0 mm
10:14 19.1 °C 3.8 °C 1018.1 hPa OSO 14 km/h 30.6 km/h 36.4% 0.0 mm
10:19 19.2 °C 3.7 °C 1018.1 hPa OSO 14 km/h 24.1 km/h 36% 0.0 mm
10:24 19.2 °C 3.8 °C 1018.2 hPa Oeste 14.1 km/h 29.6 km/h 36% 0.0 mm
10:29 19.2 °C 3.6 °C 1018.2 hPa Oeste 14.8 km/h 29 km/h 35.5% 0.0 mm
10:34 19.3 °C 3.6 °C 1018.2 hPa Oeste 15.2 km/h 30.6 km/h 35.3% 0.0 mm
10:39 19.4 °C 3.6 °C 1018.3 hPa Oeste 17.2 km/h 30.6 km/h 35% 0.0 mm
10:44 19.6 °C 3.7 °C 1018.3 hPa Oeste 17.1 km/h 30.6 km/h 35% 0.0 mm
10:49 19.7 °C 3.6 °C 1018.3 hPa Oeste 16.4 km/h 31.5 km/h 34.5% 0.0 mm
10:54 19.8 °C 3.6 °C 1018.3 hPa Oeste 16.4 km/h 33.5 km/h 34.3% 0.0 mm
10:59 19.8 °C 3.5 °C 1018.2 hPa OSO 16.1 km/h 33.8 km/h 34.1% 0.0 mm
11:04 19.8 °C 3.5 °C 1018.2 hPa Oeste 16.6 km/h 34.6 km/h 34% 0.0 mm
11:09 19.8 °C 3.5 °C 1018.3 hPa Oeste 19.8 km/h 35.4 km/h 34% 0.0 mm
11:14 19.9 °C 3.6 °C 1018.3 hPa Oeste 19.6 km/h 35.4 km/h 34% 0.0 mm
11:19 19.9 °C 3.2 °C 1018.3 hPa Oeste 18 km/h 33.3 km/h 33.2% 0.0 mm
11:24 20.2 °C 3.4 °C 1018.3 hPa Oeste 17.6 km/h 33.8 km/h 33.1% 0.0 mm
11:29 20.4 °C 3.6 °C 1018.1 hPa Oeste 15.6 km/h 27.4 km/h 33% 0.0 mm
11:34 20.7 °C 3.6 °C 1018.1 hPa Oeste 15.3 km/h 27.8 km/h 32.6% 0.0 mm
11:39 20.6 °C 3.4 °C 1018.1 hPa Oeste 13.7 km/h 27.8 km/h 32.3% 0.0 mm
11:44 20.7 °C 3.6 °C 1018.0 hPa OSO 13.7 km/h 24.1 km/h 32.5% 0.0 mm
11:49 20.8 °C 3.3 °C 1018.0 hPa OSO 14 km/h 29.8 km/h 31.4% 0.0 mm
11:54 20.8 °C 3.3 °C 1018.0 hPa Oeste 14.2 km/h 29.8 km/h 31.6% 0.0 mm
11:59 20.9 °C 3.1 °C 1017.7 hPa Oeste 15.6 km/h 30.6 km/h 31% 0.0 mm
12:04 21 °C 3.3 °C 1017.7 hPa OSO 15.6 km/h 29 km/h 31.2% 0.0 mm
12:09 21.3 °C 3.5 °C 1017.7 hPa OSO 15.6 km/h 35.2 km/h 31% 0.0 mm
12:14 21.4 °C 3.5 °C 1017.5 hPa OSO 15.6 km/h 35.4 km/h 30.8% 0.0 mm
12:19 21.3 °C 3.2 °C 1017.5 hPa Oeste 16.1 km/h 29.6 km/h 30.3% 0.0 mm
12:24 21.5 °C 3.2 °C 1017.5 hPa ONO 16.1 km/h 35.2 km/h 30% 0.0 mm
12:29 21.8 °C 3.2 °C 1017.5 hPa Oeste 16.4 km/h 37.8 km/h 29.6% 0.0 mm
12:34 21.8 °C 3.1 °C 1017.5 hPa Oeste 16.3 km/h 37 km/h 29.1% 0.0 mm
12:39 22 °C 3.2 °C 1017.5 hPa OSO 15.6 km/h 29 km/h 29.3% 0.0 mm
12:44 22.2 °C 3.3 °C 1017.3 hPa Oeste 15.4 km/h 33.5 km/h 29% 0.0 mm
12:49 22.2 °C 3.3 °C 1017.3 hPa Oeste 14 km/h 33.8 km/h 29% 0.0 mm
12:54 22.4 °C 3.5 °C 1017.3 hPa Oeste 14 km/h 28.2 km/h 29% 0.0 mm
12:59 22.6 °C 3.3 °C 1017.1 hPa ONO 14 km/h 28.2 km/h 28.2% 0.0 mm
13:04 22.7 °C 3.2 °C 1017.1 hPa Oeste 14.4 km/h 34.3 km/h 28% 0.0 mm
13:09 22.4 °C 3 °C 1017.1 hPa Oeste 16.4 km/h 33.8 km/h 28% 0.0 mm
13:14 22.6 °C 3.2 °C 1017.0 hPa Oeste 16.8 km/h 33.5 km/h 28% 0.0 mm
13:19 22.7 °C 3.2 °C 1017.0 hPa OSO 19.8 km/h 33.8 km/h 28% 0.0 mm
13:24 22.8 °C 3.4 °C 1017.0 hPa OSO 19.1 km/h 28.2 km/h 28% 0.0 mm
13:29 23.1 °C 3.6 °C 1016.6 hPa OSO 15.6 km/h 30.6 km/h 28% 0.0 mm
13:34 23.1 °C 3.5 °C 1016.6 hPa Oeste 16.1 km/h 38.9 km/h 27.8% 0.0 mm
13:39 22.9 °C 3.4 °C 1016.6 hPa Oeste 19.8 km/h 38.6 km/h 28% 0.0 mm
13:44 23.2 °C 3.5 °C 1016.4 hPa ONO 19.7 km/h 35.2 km/h 27.6% 0.0 mm
13:49 23.4 °C 3.7 °C 1016.4 hPa ONO 18 km/h 35.4 km/h 27.7% 0.0 mm
13:54 23.5 °C 3.5 °C 1016.4 hPa Oeste 18.3 km/h 33.5 km/h 27.1% 0.0 mm
13:59 23.8 °C 3.6 °C 1015.9 hPa OSO 19.8 km/h 33.8 km/h 27.1% 0.0 mm
14:04 23.8 °C 3.2 °C 1015.9 hPa Oeste 19.4 km/h 34.3 km/h 26.2% 0.0 mm
14:09 23.9 °C 3.4 °C 1015.9 hPa ONO 17.2 km/h 33.8 km/h 26.2% 0.0 mm
14:14 24.1 °C 3.4 °C 1015.4 hPa Oeste 17 km/h 28.2 km/h 26% 0.0 mm
14:19 24.3 °C 3.3 °C 1015.4 hPa ONO 15.6 km/h 39.9 km/h 25.6% 0.0 mm
14:24 24.3 °C 3.2 °C 1015.4 hPa ONO 16.5 km/h 40.7 km/h 25.3% 0.0 mm
14:29 24.2 °C 3.3 °C 1015.2 hPa ONO 21.7 km/h 42.6 km/h 25.7% 0.0 mm
14:34 24.3 °C 3.4 °C 1015.2 hPa Oeste 21.8 km/h 41.8 km/h 25.6% 0.0 mm
14:39 24.4 °C 3.5 °C 1015.2 hPa ONO 22.1 km/h 37 km/h 25.7% 0.0 mm
14:44 24.6 °C 3.6 °C 1015.0 hPa ONO 21.7 km/h 38.1 km/h 25.6% 0.0 mm
14:49 24.5 °C 3.3 °C 1015.0 hPa Oeste 19 km/h 39.6 km/h 25.1% 0.0 mm
14:54 24.6 °C 3.7 °C 1015.0 hPa ONO 19.6 km/h 40.2 km/h 25.8% 0.0 mm
14:59 24.8 °C 3.9 °C 1014.7 hPa ONO 23.3 km/h 37 km/h 25.9% 0.0 mm
15:04 24.9 °C 3.6 °C 1014.7 hPa ONO 22.4 km/h 33.8 km/h 25.2% 0.0 mm
15:09 25.1 °C 3.8 °C 1014.7 hPa Oeste 18.1 km/h 31.7 km/h 25.3% 0.0 mm
15:14 25.2 °C 4 °C 1014.3 hPa Oeste 17.9 km/h 32.3 km/h 25.4% 0.0 mm
15:19 25.3 °C 3.8 °C 1014.3 hPa ONO 17.2 km/h 37 km/h 25.1% 0.0 mm
15:24 25.2 °C 3.9 °C 1014.3 hPa ONO 17.5 km/h 37 km/h 25.3% 0.0 mm
15:29 25.3 °C 4.3 °C 1014.1 hPa ONO 19.8 km/h 35.4 km/h 25.9% 0.0 mm
15:34 25.4 °C 4.4 °C 1014.1 hPa ONO 19.6 km/h 33.8 km/h 25.8% 0.0 mm
15:39 25.6 °C 4.3 °C 1014.1 hPa Oeste 18.4 km/h 33.3 km/h 25.4% 0.0 mm
15:44 25.7 °C 4.5 °C 1013.8 hPa ONO 18.4 km/h 33.8 km/h 25.6% 0.0 mm
15:49 25.8 °C 4.3 °C 1013.8 hPa ONO 19 km/h 32.2 km/h 25% 0.0 mm
15:54 25.8 °C 4.3 °C 1013.8 hPa ONO 18.5 km/h 30.6 km/h 25% 0.0 mm
15:59 25.8 °C 4.3 °C 1013.6 hPa ONO 16.1 km/h 34.6 km/h 25% 0.0 mm
16:04 25.9 °C 4.4 °C 1013.6 hPa ONO 16.3 km/h 35.4 km/h 25% 0.0 mm
16:09 26 °C 4.4 °C 1013.6 hPa ONO 17.2 km/h 29 km/h 25% 0.0 mm
16:14 26.2 °C 4.6 °C 1013.3 hPa ONO 16.9 km/h 31.7 km/h 25% 0.0 mm
16:19 26.3 °C 4.4 °C 1013.3 hPa Oeste 15.6 km/h 32.2 km/h 24.5% 0.0 mm
16:24 26.2 °C 4.6 °C 1013.3 hPa ONO 15.7 km/h 29.6 km/h 25% 0.0 mm
16:29 26.2 °C 4.6 °C 1013.1 hPa ONO 16.4 km/h 35.2 km/h 25% 0.0 mm
16:34 26.3 °C 4.7 °C 1013.1 hPa ONO 16.4 km/h 35.9 km/h 25% 0.0 mm
16:39 26.5 °C 4.9 °C 1013.1 hPa ONO 16.1 km/h 35.4 km/h 25% 0.0 mm
16:44 26.6 °C 4.7 °C 1012.7 hPa Oeste 15.9 km/h 33.3 km/h 24.6% 0.0 mm
16:49 26.4 °C 4.7 °C 1012.7 hPa ONO 14.8 km/h 33.8 km/h 24.8% 0.0 mm
16:54 26.7 °C 5 °C 1012.7 hPa ONO 14.7 km/h 29.6 km/h 25% 0.0 mm
16:59 26.7 °C 4.9 °C 1012.5 hPa ONO 13.7 km/h 31.7 km/h 24.7% 0.0 mm
17:04 26.6 °C 4.8 °C 1012.5 hPa ONO 14.4 km/h 32.2 km/h 24.8% 0.0 mm
17:09 26.6 °C 5 °C 1012.5 hPa ONO 18.3 km/h 30.6 km/h 25% 0.0 mm
17:14 26.7 °C 5 °C 1012.3 hPa ONO 17.7 km/h 24.5 km/h 25% 0.0 mm
17:19 26.7 °C 5.1 °C 1012.3 hPa ONO 14 km/h 31.5 km/h 25% 0.0 mm
17:24 26.8 °C 5 °C 1012.3 hPa ONO 14.4 km/h 32.2 km/h 24.8% 0.0 mm
17:29 26.8 °C 5.1 °C 1012.1 hPa NO 16.4 km/h 27.4 km/h 25% 0.0 mm
17:34 26.8 °C 4.8 °C 1012.1 hPa Oeste 16.2 km/h 32.8 km/h 24.5% 0.0 mm
17:39 26.8 °C 4.7 °C 1012.1 hPa ONO 14.8 km/h 33.8 km/h 24.2% 0.0 mm
17:44 26.8 °C 5.1 °C 1011.9 hPa ONO 14.8 km/h 27.4 km/h 25% 0.0 mm
17:49 27 °C 5.2 °C 1011.9 hPa ONO 14.8 km/h 23.7 km/h 24.9% 0.0 mm
17:54 27.2 °C 5 °C 1011.9 hPa ONO 14.2 km/h 24.1 km/h 24.3% 0.0 mm
17:59 27.2 °C 4.9 °C 1011.9 hPa ONO 10.3 km/h 24.5 km/h 24% 0.0 mm
18:04 27.2 °C 5 °C 1011.9 hPa ONO 10.6 km/h 24.1 km/h 24.3% 0.0 mm
18:09 27.1 °C 4.8 °C 1011.9 hPa ONO 11.9 km/h 20.9 km/h 24% 0.0 mm
18:14 27.1 °C 4.9 °C 1011.8 hPa ONO 11.9 km/h 25.9 km/h 24.2% 0.0 mm
18:19 27.1 °C 5 °C 1011.8 hPa ONO 11.9 km/h 25.7 km/h 24.3% 0.0 mm
18:24 27.1 °C 5.3 °C 1011.9 hPa ONO 11.9 km/h 19.8 km/h 24.8% 0.0 mm
18:29 27.1 °C 5.4 °C 1011.9 hPa NO 11.9 km/h 20.9 km/h 25% 0.0 mm
18:34 27.1 °C 5.4 °C 1011.9 hPa ONO 11.4 km/h 20.9 km/h 25% 0.0 mm
18:39 27.1 °C 5.3 °C 1011.9 hPa ONO 8.4 km/h 15.6 km/h 24.8% 0.0 mm
18:44 27.2 °C 5.4 °C 1011.7 hPa ONO 8.4 km/h 16.1 km/h 25% 0.0 mm
18:49 27.2 °C 5.4 °C 1011.7 hPa ONO 8.7 km/h 16.1 km/h 25% 0.0 mm
18:54 27.1 °C 5.4 °C 1011.7 hPa ONO 8.6 km/h 16.7 km/h 25% 0.0 mm
18:59 27 °C 5.3 °C 1011.6 hPa ONO 8.4 km/h 16.1 km/h 25% 0.0 mm
19:04 27 °C 5.3 °C 1011.6 hPa Oeste 8 km/h 12.9 km/h 25% 0.0 mm
19:09 27 °C 5.3 °C 1011.7 hPa ONO 5.8 km/h 11.1 km/h 25% 0.0 mm
19:14 26.9 °C 5.2 °C 1011.7 hPa Oeste 5.8 km/h 11.3 km/h 25% 0.0 mm
19:19 26.8 °C 5.1 °C 1011.7 hPa Oeste 6.4 km/h 11.9 km/h 25.1% 0.0 mm
19:24 26.7 °C 5.3 °C 1011.7 hPa ONO 6.4 km/h 11.3 km/h 25.4% 0.0 mm
19:29 26.6 °C 4.9 °C 1011.6 hPa Oeste 5.8 km/h 13.7 km/h 25% 0.0 mm
19:34 26.4 °C 5.2 °C 1011.6 hPa SO 6.2 km/h 16.1 km/h 25.7% 0.0 mm
19:39 26.1 °C 5.6 °C 1011.8 hPa Sur 8.4 km/h 17.2 km/h 26.9% 0.0 mm
19:44 25.7 °C 5.8 °C 1011.8 hPa Sur 8.6 km/h 17.7 km/h 27.9% 0.0 mm
19:49 25.4 °C 6 °C 1011.8 hPa SSO 10 km/h 16.7 km/h 28.9% 0.0 mm
19:54 25.3 °C 6 °C 1011.9 hPa SSO 9.8 km/h 16.7 km/h 29% 0.0 mm
19:59 25.1 °C 6.3 °C 1011.9 hPa SSO 8.7 km/h 16.7 km/h 29.9% 0.0 mm
20:04 24.8 °C 6.1 °C 1011.9 hPa Sur 8.8 km/h 16.1 km/h 30% 0.0 mm
20:09 24.7 °C 6 °C 1012.0 hPa Sur 9.5 km/h 16.7 km/h 30% 0.0 mm
Murcia-Puente Tocinos, España
Compliments of Weather Underground - 2.75 mb

La estación de MeteoMurcia.com, publica sus datos en los siguientes proyectos:

Weather Underground PWS IMURCIAP2 Meteoclimatic www.awekas.at

W3Counter
Web Analytics